sensor_id;sensor_type;location;lat;lon;timestamp;P1;durP1;ratioP1;P2;durP2;ratioP2
71572;SDS011;59408;51.032;9.410;2024-03-02T00:01:20;25.48;;;11.40;;
71572;SDS011;59408;51.032;9.410;2024-03-02T00:03:47;23.27;;;10.52;;
71572;SDS011;59408;51.032;9.410;2024-03-02T00:06:14;23.60;;;11.43;;
71572;SDS011;59408;51.032;9.410;2024-03-02T00:08:41;26.52;;;11.55;;
71572;SDS011;59408;51.032;9.410;2024-03-02T00:11:07;22.48;;;10.85;;
71572;SDS011;59408;51.032;9.410;2024-03-02T00:13:34;23.70;;;11.35;;
71572;SDS011;59408;51.032;9.410;2024-03-02T00:16:02;24.20;;;11.48;;
71572;SDS011;59408;51.032;9.410;2024-03-02T00:18:30;22.23;;;10.87;;
71572;SDS011;59408;51.032;9.410;2024-03-02T00:20:58;24.55;;;10.95;;
71572;SDS011;59408;51.032;9.410;2024-03-02T00:23:27;23.05;;;10.60;;
71572;SDS011;59408;51.032;9.410;2024-03-02T00:25:55;27.50;;;11.73;;
71572;SDS011;59408;51.032;9.410;2024-03-02T00:28:22;25.10;;;11.68;;
71572;SDS011;59408;51.032;9.410;2024-03-02T00:30:51;23.73;;;10.90;;
71572;SDS011;59408;51.032;9.410;2024-03-02T00:33:24;25.98;;;11.30;;
71572;SDS011;59408;51.032;9.410;2024-03-02T00:35:53;24.17;;;11.13;;
71572;SDS011;59408;51.032;9.410;2024-03-02T00:38:19;25.15;;;11.30;;
71572;SDS011;59408;51.032;9.410;2024-03-02T00:40:46;25.05;;;11.70;;
71572;SDS011;59408;51.032;9.410;2024-03-02T00:43:20;23.73;;;10.63;;
71572;SDS011;59408;51.032;9.410;2024-03-02T00:46:14;25.67;;;11.43;;
71572;SDS011;59408;51.032;9.410;2024-03-02T00:48:47;24.90;;;11.20;;
71572;SDS011;59408;51.032;9.410;2024-03-02T00:51:17;22.65;;;10.65;;
71572;SDS011;59408;51.032;9.410;2024-03-02T00:53:43;24.38;;;10.95;;
71572;SDS011;59408;51.032;9.410;2024-03-02T00:56:10;25.00;;;10.63;;
71572;SDS011;59408;51.032;9.410;2024-03-02T00:58:37;22.45;;;11.02;;
71572;SDS011;59408;51.032;9.410;2024-03-02T01:01:04;24.42;;;11.43;;
71572;SDS011;59408;51.032;9.410;2024-03-02T01:03:31;21.63;;;10.52;;
71572;SDS011;59408;51.032;9.410;2024-03-02T01:05:59;22.88;;;10.38;;
71572;SDS011;59408;51.032;9.410;2024-03-02T01:08:25;25.10;;;10.93;;
71572;SDS011;59408;51.032;9.410;2024-03-02T01:10:52;22.42;;;10.88;;
71572;SDS011;59408;51.032;9.410;2024-03-02T01:13:18;22.42;;;11.23;;
71572;SDS011;59408;51.032;9.410;2024-03-02T01:15:45;24.20;;;10.63;;
71572;SDS011;59408;51.032;9.410;2024-03-02T01:18:11;28.92;;;12.07;;
71572;SDS011;59408;51.032;9.410;2024-03-02T01:20:38;24.90;;;11.23;;
71572;SDS011;59408;51.032;9.410;2024-03-02T01:23:05;29.52;;;12.23;;
71572;SDS011;59408;51.032;9.410;2024-03-02T01:25:32;25.52;;;11.60;;
71572;SDS011;59408;51.032;9.410;2024-03-02T01:27:59;23.20;;;11.05;;
71572;SDS011;59408;51.032;9.410;2024-03-02T01:30:25;26.30;;;11.85;;
71572;SDS011;59408;51.032;9.410;2024-03-02T01:32:52;25.53;;;11.27;;
71572;SDS011;59408;51.032;9.410;2024-03-02T01:35:18;25.73;;;12.13;;
71572;SDS011;59408;51.032;9.410;2024-03-02T01:37:45;25.50;;;11.75;;
71572;SDS011;59408;51.032;9.410;2024-03-02T01:40:13;25.98;;;11.90;;
71572;SDS011;59408;51.032;9.410;2024-03-02T01:42:39;27.77;;;12.52;;
71572;SDS011;59408;51.032;9.410;2024-03-02T01:45:06;27.03;;;11.43;;
71572;SDS011;59408;51.032;9.410;2024-03-02T01:47:34;22.75;;;10.60;;
71572;SDS011;59408;51.032;9.410;2024-03-02T01:50:00;23.60;;;10.52;;
71572;SDS011;59408;51.032;9.410;2024-03-02T01:52:27;27.35;;;11.80;;
71572;SDS011;59408;51.032;9.410;2024-03-02T01:54:54;28.60;;;12.40;;
71572;SDS011;59408;51.032;9.410;2024-03-02T01:57:22;25.70;;;11.53;;
71572;SDS011;59408;51.032;9.410;2024-03-02T01:59:48;26.35;;;11.77;;
71572;SDS011;59408;51.032;9.410;2024-03-02T02:02:15;25.17;;;11.40;;
71572;SDS011;59408;51.032;9.410;2024-03-02T02:04:42;27.65;;;11.75;;
71572;SDS011;59408;51.032;9.410;2024-03-02T02:07:08;24.50;;;11.90;;
71572;SDS011;59408;51.032;9.410;2024-03-02T02:09:36;23.03;;;10.97;;
71572;SDS011;59408;51.032;9.410;2024-03-02T02:12:02;26.13;;;11.38;;
71572;SDS011;59408;51.032;9.410;2024-03-02T02:14:30;27.38;;;12.45;;
71572;SDS011;59408;51.032;9.410;2024-03-02T02:16:57;27.35;;;12.20;;
71572;SDS011;59408;51.032;9.410;2024-03-02T02:19:23;25.30;;;11.40;;
71572;SDS011;59408;51.032;9.410;2024-03-02T02:21:51;26.40;;;11.67;;
71572;SDS011;59408;51.032;9.410;2024-03-02T02:24:18;28.70;;;12.05;;
71572;SDS011;59408;51.032;9.410;2024-03-02T02:26:44;25.77;;;12.00;;
71572;SDS011;59408;51.032;9.410;2024-03-02T02:29:11;26.10;;;11.35;;
71572;SDS011;59408;51.032;9.410;2024-03-02T02:31:37;24.67;;;11.25;;
71572;SDS011;59408;51.032;9.410;2024-03-02T02:34:04;26.43;;;12.17;;
71572;SDS011;59408;51.032;9.410;2024-03-02T02:36:30;28.23;;;12.23;;
71572;SDS011;59408;51.032;9.410;2024-03-02T02:38:58;27.45;;;12.65;;
71572;SDS011;59408;51.032;9.410;2024-03-02T02:41:27;25.48;;;11.95;;
71572;SDS011;59408;51.032;9.410;2024-03-02T02:43:54;26.63;;;11.77;;
71572;SDS011;59408;51.032;9.410;2024-03-02T02:46:20;26.17;;;12.03;;
71572;SDS011;59408;51.032;9.410;2024-03-02T02:48:47;28.25;;;11.85;;
71572;SDS011;59408;51.032;9.410;2024-03-02T02:51:13;26.42;;;12.38;;
71572;SDS011;59408;51.032;9.410;2024-03-02T02:53:40;26.02;;;11.40;;
71572;SDS011;59408;51.032;9.410;2024-03-02T02:56:08;27.95;;;12.32;;
71572;SDS011;59408;51.032;9.410;2024-03-02T02:58:34;26.97;;;11.63;;
71572;SDS011;59408;51.032;9.410;2024-03-02T03:01:01;26.25;;;12.18;;
71572;SDS011;59408;51.032;9.410;2024-03-02T03:03:28;25.52;;;11.75;;
71572;SDS011;59408;51.032;9.410;2024-03-02T03:05:54;26.48;;;13.02;;
71572;SDS011;59408;51.032;9.410;2024-03-02T03:08:21;29.30;;;12.23;;
71572;SDS011;59408;51.032;9.410;2024-03-02T03:10:47;28.33;;;12.20;;
71572;SDS011;59408;51.032;9.410;2024-03-02T03:13:15;27.77;;;12.80;;
71572;SDS011;59408;51.032;9.410;2024-03-02T03:15:42;31.25;;;12.73;;
71572;SDS011;59408;51.032;9.410;2024-03-02T03:18:08;31.92;;;12.73;;
71572;SDS011;59408;51.032;9.410;2024-03-02T03:20:35;26.73;;;11.77;;
71572;SDS011;59408;51.032;9.410;2024-03-02T03:23:01;29.53;;;12.43;;
71572;SDS011;59408;51.032;9.410;2024-03-02T03:25:28;29.70;;;12.45;;
71572;SDS011;59408;51.032;9.410;2024-03-02T03:27:54;29.42;;;13.27;;
71572;SDS011;59408;51.032;9.410;2024-03-02T03:30:22;32.63;;;12.98;;
71572;SDS011;59408;51.032;9.410;2024-03-02T03:32:49;29.02;;;13.18;;
71572;SDS011;59408;51.032;9.410;2024-03-02T03:35:15;33.60;;;13.13;;
71572;SDS011;59408;51.032;9.410;2024-03-02T03:37:41;28.40;;;12.45;;
71572;SDS011;59408;51.032;9.410;2024-03-02T03:40:08;26.88;;;11.98;;
71572;SDS011;59408;51.032;9.410;2024-03-02T03:42:35;31.27;;;12.32;;
71572;SDS011;59408;51.032;9.410;2024-03-02T03:45:02;31.33;;;12.68;;
71572;SDS011;59408;51.032;9.410;2024-03-02T03:47:30;30.93;;;14.07;;
71572;SDS011;59408;51.032;9.410;2024-03-02T03:49:57;36.78;;;14.63;;
71572;SDS011;59408;51.032;9.410;2024-03-02T03:52:23;31.63;;;13.68;;
71572;SDS011;59408;51.032;9.410;2024-03-02T03:54:50;31.88;;;13.60;;
71572;SDS011;59408;51.032;9.410;2024-03-02T03:57:16;33.47;;;14.35;;
71572;SDS011;59408;51.032;9.410;2024-03-02T03:59:43;32.80;;;13.53;;
71572;SDS011;59408;51.032;9.410;2024-03-02T04:02:10;33.58;;;14.27;;
71572;SDS011;59408;51.032;9.410;2024-03-02T04:04:37;37.65;;;15.75;;
71572;SDS011;59408;51.032;9.410;2024-03-02T04:07:04;38.97;;;14.65;;
71572;SDS011;59408;51.032;9.410;2024-03-02T04:09:30;37.92;;;13.88;;
71572;SDS011;59408;51.032;9.410;2024-03-02T04:11:57;33.97;;;13.87;;
71572;SDS011;59408;51.032;9.410;2024-03-02T04:14:23;31.67;;;13.88;;
71572;SDS011;59408;51.032;9.410;2024-03-02T04:16:50;36.85;;;15.32;;
71572;SDS011;59408;51.032;9.410;2024-03-02T04:19:16;33.13;;;13.40;;
71572;SDS011;59408;51.032;9.410;2024-03-02T04:21:44;35.15;;;14.43;;
71572;SDS011;59408;51.032;9.410;2024-03-02T04:24:10;31.47;;;13.30;;
71572;SDS011;59408;51.032;9.410;2024-03-02T04:26:37;32.75;;;13.85;;
71572;SDS011;59408;51.032;9.410;2024-03-02T04:29:03;31.77;;;13.45;;
71572;SDS011;59408;51.032;9.410;2024-03-02T04:31:30;34.30;;;13.40;;
71572;SDS011;59408;51.032;9.410;2024-03-02T04:33:56;30.02;;;13.27;;
71572;SDS011;59408;51.032;9.410;2024-03-02T04:36:23;32.93;;;13.87;;
71572;SDS011;59408;51.032;9.410;2024-03-02T04:38:51;30.00;;;12.38;;
71572;SDS011;59408;51.032;9.410;2024-03-02T04:41:17;32.53;;;14.10;;
71572;SDS011;59408;51.032;9.410;2024-03-02T04:43:44;31.42;;;13.23;;
71572;SDS011;59408;51.032;9.410;2024-03-02T04:46:10;32.30;;;13.75;;
71572;SDS011;59408;51.032;9.410;2024-03-02T04:48:37;29.47;;;12.37;;
71572;SDS011;59408;51.032;9.410;2024-03-02T04:51:04;29.98;;;12.80;;
71572;SDS011;59408;51.032;9.410;2024-03-02T04:53:30;29.80;;;11.98;;
71572;SDS011;59408;51.032;9.410;2024-03-02T04:55:58;33.22;;;13.05;;
71572;SDS011;59408;51.032;9.410;2024-03-02T04:58:24;27.40;;;12.25;;
71572;SDS011;59408;51.032;9.410;2024-03-02T05:00:51;28.33;;;10.97;;
71572;SDS011;59408;51.032;9.410;2024-03-02T05:03:17;27.40;;;12.10;;
71572;SDS011;59408;51.032;9.410;2024-03-02T05:05:45;28.80;;;12.88;;
71572;SDS011;59408;51.032;9.410;2024-03-02T05:08:11;27.98;;;12.23;;
71572;SDS011;59408;51.032;9.410;2024-03-02T05:10:38;31.58;;;13.02;;
71572;SDS011;59408;51.032;9.410;2024-03-02T05:13:05;31.37;;;12.97;;
71572;SDS011;59408;51.032;9.410;2024-03-02T05:15:32;32.00;;;12.98;;
71572;SDS011;59408;51.032;9.410;2024-03-02T05:17:59;31.15;;;13.20;;
71572;SDS011;59408;51.032;9.410;2024-03-02T05:20:25;31.52;;;12.85;;
71572;SDS011;59408;51.032;9.410;2024-03-02T05:22:52;33.65;;;13.32;;
71572;SDS011;59408;51.032;9.410;2024-03-02T05:25:19;32.70;;;13.83;;
71572;SDS011;59408;51.032;9.410;2024-03-02T05:27:45;35.90;;;13.93;;
71572;SDS011;59408;51.032;9.410;2024-03-02T05:30:13;35.03;;;13.50;;
71572;SDS011;59408;51.032;9.410;2024-03-02T05:32:40;32.30;;;13.68;;
71572;SDS011;59408;51.032;9.410;2024-03-02T05:35:07;28.27;;;13.63;;
71572;SDS011;59408;51.032;9.410;2024-03-02T05:37:34;28.23;;;12.53;;
71572;SDS011;59408;51.032;9.410;2024-03-02T05:40:00;31.33;;;14.38;;
71572;SDS011;59408;51.032;9.410;2024-03-02T05:42:27;32.15;;;13.63;;
71572;SDS011;59408;51.032;9.410;2024-03-02T05:44:53;32.75;;;13.48;;
71572;SDS011;59408;51.032;9.410;2024-03-02T05:47:21;31.20;;;13.27;;
71572;SDS011;59408;51.032;9.410;2024-03-02T05:49:47;31.50;;;13.63;;
71572;SDS011;59408;51.032;9.410;2024-03-02T05:52:14;31.20;;;13.32;;
71572;SDS011;59408;51.032;9.410;2024-03-02T05:54:40;29.90;;;12.45;;
71572;SDS011;59408;51.032;9.410;2024-03-02T05:57:07;30.50;;;12.88;;
71572;SDS011;59408;51.032;9.410;2024-03-02T05:59:33;26.77;;;12.02;;
71572;SDS011;59408;51.032;9.410;2024-03-02T06:01:59;33.43;;;12.93;;
71572;SDS011;59408;51.032;9.410;2024-03-02T06:04:27;29.70;;;12.52;;
71572;SDS011;59408;51.032;9.410;2024-03-02T06:06:54;29.52;;;12.23;;
71572;SDS011;59408;51.032;9.410;2024-03-02T06:09:20;31.00;;;13.02;;
71572;SDS011;59408;51.032;9.410;2024-03-02T06:11:47;31.95;;;13.30;;
71572;SDS011;59408;51.032;9.410;2024-03-02T06:14:13;30.17;;;13.00;;
71572;SDS011;59408;51.032;9.410;2024-03-02T06:16:40;32.90;;;13.02;;
71572;SDS011;59408;51.032;9.410;2024-03-02T06:19:06;30.77;;;12.95;;
71572;SDS011;59408;51.032;9.410;2024-03-02T06:21:34;31.40;;;13.27;;
71572;SDS011;59408;51.032;9.410;2024-03-02T06:24:00;30.67;;;13.85;;
71572;SDS011;59408;51.032;9.410;2024-03-02T06:26:27;32.57;;;12.93;;
71572;SDS011;59408;51.032;9.410;2024-03-02T06:28:53;32.72;;;13.48;;
71572;SDS011;59408;51.032;9.410;2024-03-02T06:31:20;31.45;;;13.73;;
71572;SDS011;59408;51.032;9.410;2024-03-02T06:33:46;31.77;;;13.52;;
71572;SDS011;59408;51.032;9.410;2024-03-02T06:36:13;33.22;;;12.70;;
71572;SDS011;59408;51.032;9.410;2024-03-02T06:38:40;31.50;;;13.70;;
71572;SDS011;59408;51.032;9.410;2024-03-02T06:41:09;33.38;;;13.68;;
71572;SDS011;59408;51.032;9.410;2024-03-02T06:43:35;31.50;;;13.75;;
71572;SDS011;59408;51.032;9.410;2024-03-02T06:46:02;31.98;;;13.75;;
71572;SDS011;59408;51.032;9.410;2024-03-02T06:48:29;34.35;;;14.02;;
71572;SDS011;59408;51.032;9.410;2024-03-02T06:50:55;32.67;;;13.87;;
71572;SDS011;59408;51.032;9.410;2024-03-02T06:53:22;32.25;;;13.18;;
71572;SDS011;59408;51.032;9.410;2024-03-02T06:55:49;32.25;;;13.77;;
71572;SDS011;59408;51.032;9.410;2024-03-02T06:58:16;29.77;;;12.82;;
71572;SDS011;59408;51.032;9.410;2024-03-02T07:00:42;27.50;;;12.82;;
71572;SDS011;59408;51.032;9.410;2024-03-02T07:03:09;27.70;;;12.67;;
71572;SDS011;59408;51.032;9.410;2024-03-02T07:05:36;27.05;;;12.70;;
71572;SDS011;59408;51.032;9.410;2024-03-02T07:08:02;28.13;;;12.63;;
71572;SDS011;59408;51.032;9.410;2024-03-02T07:10:29;29.98;;;12.88;;
71572;SDS011;59408;51.032;9.410;2024-03-02T07:12:57;28.65;;;13.65;;
71572;SDS011;59408;51.032;9.410;2024-03-02T07:15:24;34.10;;;15.63;;
71572;SDS011;59408;51.032;9.410;2024-03-02T07:17:50;32.58;;;15.60;;
71572;SDS011;59408;51.032;9.410;2024-03-02T07:20:17;31.50;;;14.55;;
71572;SDS011;59408;51.032;9.410;2024-03-02T07:22:43;32.90;;;14.80;;
71572;SDS011;59408;51.032;9.410;2024-03-02T07:25:10;29.45;;;14.32;;
71572;SDS011;59408;51.032;9.410;2024-03-02T07:27:58;34.80;;;15.93;;
71572;SDS011;59408;51.032;9.410;2024-03-02T07:30:25;35.63;;;15.23;;
71572;SDS011;59408;51.032;9.410;2024-03-02T07:32:51;29.85;;;14.70;;
71572;SDS011;59408;51.032;9.410;2024-03-02T07:35:18;28.33;;;12.98;;
71572;SDS011;59408;51.032;9.410;2024-03-02T07:37:44;27.42;;;12.40;;
71572;SDS011;59408;51.032;9.410;2024-03-02T07:40:11;29.27;;;12.90;;
71572;SDS011;59408;51.032;9.410;2024-03-02T07:42:38;27.75;;;12.88;;
71572;SDS011;59408;51.032;9.410;2024-03-02T07:45:06;24.70;;;11.85;;
71572;SDS011;59408;51.032;9.410;2024-03-02T07:47:33;26.52;;;12.27;;
71572;SDS011;59408;51.032;9.410;2024-03-02T07:50:00;21.33;;;10.85;;
71572;SDS011;59408;51.032;9.410;2024-03-02T07:52:26;22.73;;;10.73;;
71572;SDS011;59408;51.032;9.410;2024-03-02T07:54:53;22.10;;;10.43;;
71572;SDS011;59408;51.032;9.410;2024-03-02T07:57:19;23.70;;;10.20;;
71572;SDS011;59408;51.032;9.410;2024-03-02T07:59:46;20.15;;;9.02;;
71572;SDS011;59408;51.032;9.410;2024-03-02T08:02:14;21.80;;;9.70;;
71572;SDS011;59408;51.032;9.410;2024-03-02T08:04:40;22.03;;;10.77;;
71572;SDS011;59408;51.032;9.410;2024-03-02T08:07:07;21.08;;;10.15;;
71572;SDS011;59408;51.032;9.410;2024-03-02T08:09:34;19.00;;;9.30;;
71572;SDS011;59408;51.032;9.410;2024-03-02T08:12:00;20.77;;;9.68;;
71572;SDS011;59408;51.032;9.410;2024-03-02T08:14:27;18.70;;;9.18;;
71572;SDS011;59408;51.032;9.410;2024-03-02T08:16:53;18.57;;;8.67;;
71572;SDS011;59408;51.032;9.410;2024-03-02T08:19:21;17.40;;;8.13;;
71572;SDS011;59408;51.032;9.410;2024-03-02T08:21:48;20.38;;;9.32;;
71572;SDS011;59408;51.032;9.410;2024-03-02T08:24:15;18.73;;;9.57;;
71572;SDS011;59408;51.032;9.410;2024-03-02T08:26:42;19.63;;;9.35;;
71572;SDS011;59408;51.032;9.410;2024-03-02T08:29:08;19.23;;;8.83;;
71572;SDS011;59408;51.032;9.410;2024-03-02T08:31:35;16.98;;;7.97;;
71572;SDS011;59408;51.032;9.410;2024-03-02T08:34:04;19.00;;;9.27;;
71572;SDS011;59408;51.032;9.410;2024-03-02T08:36:32;17.35;;;8.00;;
71572;SDS011;59408;51.032;9.410;2024-03-02T08:38:58;17.83;;;7.95;;
71572;SDS011;59408;51.032;9.410;2024-03-02T08:41:25;15.77;;;8.13;;
71572;SDS011;59408;51.032;9.410;2024-03-02T08:43:51;15.25;;;7.55;;
71572;SDS011;59408;51.032;9.410;2024-03-02T08:46:18;15.35;;;8.05;;
71572;SDS011;59408;51.032;9.410;2024-03-02T08:48:44;15.80;;;7.53;;
71572;SDS011;59408;51.032;9.410;2024-03-02T08:51:11;15.93;;;7.00;;
71572;SDS011;59408;51.032;9.410;2024-03-02T08:53:39;15.93;;;7.63;;
71572;SDS011;59408;51.032;9.410;2024-03-02T08:56:05;16.05;;;7.82;;
71572;SDS011;59408;51.032;9.410;2024-03-02T08:58:32;15.52;;;7.60;;
71572;SDS011;59408;51.032;9.410;2024-03-02T09:00:58;16.40;;;8.57;;
71572;SDS011;59408;51.032;9.410;2024-03-02T09:03:25;13.65;;;6.53;;
71572;SDS011;59408;51.032;9.410;2024-03-02T09:05:52;13.90;;;6.70;;
71572;SDS011;59408;51.032;9.410;2024-03-02T09:08:18;13.07;;;6.32;;
71572;SDS011;59408;51.032;9.410;2024-03-02T09:10:46;12.93;;;6.68;;
71572;SDS011;59408;51.032;9.410;2024-03-02T09:13:12;13.10;;;6.13;;
71572;SDS011;59408;51.032;9.410;2024-03-02T09:15:39;16.27;;;7.88;;
71572;SDS011;59408;51.032;9.410;2024-03-02T09:18:06;17.60;;;8.13;;
71572;SDS011;59408;51.032;9.410;2024-03-02T09:20:32;16.98;;;7.50;;
71572;SDS011;59408;51.032;9.410;2024-03-02T09:22:59;23.02;;;11.85;;
71572;SDS011;59408;51.032;9.410;2024-03-02T09:25:25;27.20;;;13.40;;
71572;SDS011;59408;51.032;9.410;2024-03-02T09:27:53;22.50;;;11.55;;
71572;SDS011;59408;51.032;9.410;2024-03-02T09:30:20;24.63;;;12.73;;
71572;SDS011;59408;51.032;9.410;2024-03-02T09:32:46;26.63;;;13.23;;
71572;SDS011;59408;51.032;9.410;2024-03-02T09:35:15;25.08;;;13.95;;
71572;SDS011;59408;51.032;9.410;2024-03-02T09:37:42;25.75;;;12.80;;
71572;SDS011;59408;51.032;9.410;2024-03-02T09:40:09;27.52;;;13.15;;
71572;SDS011;59408;51.032;9.410;2024-03-02T09:42:37;27.93;;;13.00;;
71572;SDS011;59408;51.032;9.410;2024-03-02T09:45:05;26.08;;;13.57;;
71572;SDS011;59408;51.032;9.410;2024-03-02T09:47:32;21.77;;;12.98;;
71572;SDS011;59408;51.032;9.410;2024-03-02T09:49:59;28.48;;;14.65;;
71572;SDS011;59408;51.032;9.410;2024-03-02T09:52:25;23.27;;;12.93;;
71572;SDS011;59408;51.032;9.410;2024-03-02T09:54:52;25.10;;;12.93;;
71572;SDS011;59408;51.032;9.410;2024-03-02T09:57:19;23.90;;;12.45;;
71572;SDS011;59408;51.032;9.410;2024-03-02T09:59:45;21.80;;;11.10;;
71572;SDS011;59408;51.032;9.410;2024-03-02T10:02:13;20.98;;;10.57;;
71572;SDS011;59408;51.032;9.410;2024-03-02T10:04:40;15.65;;;8.65;;
71572;SDS011;59408;51.032;9.410;2024-03-02T10:07:10;17.00;;;8.30;;
71572;SDS011;59408;51.032;9.410;2024-03-02T10:09:41;16.17;;;7.60;;
71572;SDS011;59408;51.032;9.410;2024-03-02T10:12:09;14.57;;;7.78;;
71572;SDS011;59408;51.032;9.410;2024-03-02T10:14:36;13.65;;;7.15;;
71572;SDS011;59408;51.032;9.410;2024-03-02T10:17:03;10.55;;;5.05;;
71572;SDS011;59408;51.032;9.410;2024-03-02T10:19:32;10.67;;;4.63;;
71572;SDS011;59408;51.032;9.410;2024-03-02T10:21:59;19.63;;;10.00;;
71572;SDS011;59408;51.032;9.410;2024-03-02T10:24:34;17.27;;;8.80;;
71572;SDS011;59408;51.032;9.410;2024-03-02T10:27:02;14.52;;;7.90;;
71572;SDS011;59408;51.032;9.410;2024-03-02T10:29:32;15.52;;;7.90;;
71572;SDS011;59408;51.032;9.410;2024-03-02T10:32:01;14.40;;;7.00;;
71572;SDS011;59408;51.032;9.410;2024-03-02T10:34:28;14.35;;;7.40;;
71572;SDS011;59408;51.032;9.410;2024-03-02T10:36:56;13.93;;;7.35;;
71572;SDS011;59408;51.032;9.410;2024-03-02T10:39:23;13.68;;;6.93;;
71572;SDS011;59408;51.032;9.410;2024-03-02T10:41:50;15.90;;;7.90;;
71572;SDS011;59408;51.032;9.410;2024-03-02T10:44:18;13.17;;;6.70;;
71572;SDS011;59408;51.032;9.410;2024-03-02T10:46:45;11.02;;;5.72;;
71572;SDS011;59408;51.032;9.410;2024-03-02T10:49:13;9.63;;;4.55;;
71572;SDS011;59408;51.032;9.410;2024-03-02T10:51:40;9.45;;;4.45;;
71572;SDS011;59408;51.032;9.410;2024-03-02T10:54:08;12.35;;;5.47;;
71572;SDS011;59408;51.032;9.410;2024-03-02T10:56:34;11.03;;;5.37;;
71572;SDS011;59408;51.032;9.410;2024-03-02T10:59:06;10.68;;;4.95;;
71572;SDS011;59408;51.032;9.410;2024-03-02T11:01:42;13.05;;;6.90;;
71572;SDS011;59408;51.032;9.410;2024-03-02T11:04:10;13.65;;;6.90;;
71572;SDS011;59408;51.032;9.410;2024-03-02T11:06:38;13.70;;;7.03;;
71572;SDS011;59408;51.032;9.410;2024-03-02T11:09:10;11.97;;;5.80;;
71572;SDS011;59408;51.032;9.410;2024-03-02T11:11:40;9.70;;;4.80;;
71572;SDS011;59408;51.032;9.410;2024-03-02T11:14:09;10.45;;;5.00;;
71572;SDS011;59408;51.032;9.410;2024-03-02T11:16:39;11.27;;;5.00;;
71572;SDS011;59408;51.032;9.410;2024-03-02T11:19:06;10.70;;;5.50;;
71572;SDS011;59408;51.032;9.410;2024-03-02T11:21:39;10.70;;;5.30;;
71572;SDS011;59408;51.032;9.410;2024-03-02T11:26:57;9.25;;;4.43;;
71572;SDS011;59408;51.032;9.410;2024-03-02T11:32:17;6.30;;;2.60;;
71572;SDS011;59408;51.032;9.410;2024-03-02T11:34:46;6.90;;;2.30;;
71572;SDS011;59408;51.032;9.410;2024-03-02T11:37:14;6.28;;;2.60;;
71572;SDS011;59408;51.032;9.410;2024-03-02T11:39:43;6.63;;;2.78;;
71572;SDS011;59408;51.032;9.410;2024-03-02T11:42:11;6.22;;;2.55;;
71572;SDS011;59408;51.032;9.410;2024-03-02T11:44:38;7.28;;;3.20;;
71572;SDS011;59408;51.032;9.410;2024-03-02T11:47:05;7.93;;;2.67;;
71572;SDS011;59408;51.032;9.410;2024-03-02T11:49:37;6.57;;;2.40;;
71572;SDS011;59408;51.032;9.410;2024-03-02T11:52:04;6.13;;;2.50;;
71572;SDS011;59408;51.032;9.410;2024-03-02T11:54:32;9.63;;;2.70;;
71572;SDS011;59408;51.032;9.410;2024-03-02T11:57:01;6.07;;;2.47;;
71572;SDS011;59408;51.032;9.410;2024-03-02T11:59:28;5.70;;;2.60;;
71572;SDS011;59408;51.032;9.410;2024-03-02T12:01:56;5.30;;;2.05;;
71572;SDS011;59408;51.032;9.410;2024-03-02T12:04:24;6.20;;;2.42;;
71572;SDS011;59408;51.032;9.410;2024-03-02T12:06:54;5.53;;;1.90;;
71572;SDS011;59408;51.032;9.410;2024-03-02T12:09:21;5.40;;;2.15;;
71572;SDS011;59408;51.032;9.410;2024-03-02T12:11:47;6.63;;;2.03;;
71572;SDS011;59408;51.032;9.410;2024-03-02T12:14:15;6.32;;;2.00;;
71572;SDS011;59408;51.032;9.410;2024-03-02T12:16:43;6.95;;;2.22;;
71572;SDS011;59408;51.032;9.410;2024-03-02T12:19:10;6.68;;;2.60;;
71572;SDS011;59408;51.032;9.410;2024-03-02T12:21:36;6.20;;;2.10;;
71572;SDS011;59408;51.032;9.410;2024-03-02T12:24:04;6.03;;;2.03;;
71572;SDS011;59408;51.032;9.410;2024-03-02T12:26:30;6.20;;;1.90;;
71572;SDS011;59408;51.032;9.410;2024-03-02T12:28:57;5.20;;;1.90;;
71572;SDS011;59408;51.032;9.410;2024-03-02T12:31:25;4.53;;;1.45;;
71572;SDS011;59408;51.032;9.410;2024-03-02T12:33:52;4.93;;;1.45;;
71572;SDS011;59408;51.032;9.410;2024-03-02T12:36:18;4.23;;;1.37;;
71572;SDS011;59408;51.032;9.410;2024-03-02T12:38:45;4.88;;;1.50;;
71572;SDS011;59408;51.032;9.410;2024-03-02T12:41:14;3.97;;;1.30;;
71572;SDS011;59408;51.032;9.410;2024-03-02T12:43:40;4.10;;;1.10;;
71572;SDS011;59408;51.032;9.410;2024-03-02T12:46:07;4.20;;;1.20;;
71572;SDS011;59408;51.032;9.410;2024-03-02T12:48:35;4.47;;;1.30;;
71572;SDS011;59408;51.032;9.410;2024-03-02T12:51:02;4.68;;;1.27;;
71572;SDS011;59408;51.032;9.410;2024-03-02T12:53:29;4.75;;;1.50;;
71572;SDS011;59408;51.032;9.410;2024-03-02T12:55:55;4.95;;;1.40;;
71572;SDS011;59408;51.032;9.410;2024-03-02T12:58:23;4.82;;;1.30;;
71572;SDS011;59408;51.032;9.410;2024-03-02T13:00:49;4.50;;;1.43;;
71572;SDS011;59408;51.032;9.410;2024-03-02T13:03:17;4.28;;;1.35;;
71572;SDS011;59408;51.032;9.410;2024-03-02T13:05:49;5.32;;;1.80;;
71572;SDS011;59408;51.032;9.410;2024-03-02T13:08:16;4.90;;;1.15;;
71572;SDS011;59408;51.032;9.410;2024-03-02T13:10:42;4.95;;;1.25;;
71572;SDS011;59408;51.032;9.410;2024-03-02T13:13:09;4.57;;;1.40;;
71572;SDS011;59408;51.032;9.410;2024-03-02T13:15:35;4.75;;;1.70;;
71572;SDS011;59408;51.032;9.410;2024-03-02T13:18:02;4.57;;;1.38;;
71572;SDS011;59408;51.032;9.410;2024-03-02T13:20:29;5.20;;;1.80;;
71572;SDS011;59408;51.032;9.410;2024-03-02T13:22:58;5.25;;;1.38;;
71572;SDS011;59408;51.032;9.410;2024-03-02T13:25:24;4.70;;;1.30;;
71572;SDS011;59408;51.032;9.410;2024-03-02T13:27:51;5.28;;;1.45;;
71572;SDS011;59408;51.032;9.410;2024-03-02T13:30:17;4.00;;;1.23;;
71572;SDS011;59408;51.032;9.410;2024-03-02T13:32:44;4.38;;;1.20;;
71572;SDS011;59408;51.032;9.410;2024-03-02T13:35:10;4.82;;;1.33;;
71572;SDS011;59408;51.032;9.410;2024-03-02T13:37:37;3.90;;;1.20;;
71572;SDS011;59408;51.032;9.410;2024-03-02T13:40:07;4.03;;;1.13;;
71572;SDS011;59408;51.032;9.410;2024-03-02T13:42:34;4.95;;;1.13;;
71572;SDS011;59408;51.032;9.410;2024-03-02T13:45:01;3.65;;;1.02;;
71572;SDS011;59408;51.032;9.410;2024-03-02T13:47:27;4.45;;;1.30;;
71572;SDS011;59408;51.032;9.410;2024-03-02T13:49:54;3.23;;;0.90;;
71572;SDS011;59408;51.032;9.410;2024-03-02T13:52:20;4.22;;;1.20;;
71572;SDS011;59408;51.032;9.410;2024-03-02T13:54:47;3.75;;;1.00;;
71572;SDS011;59408;51.032;9.410;2024-03-02T13:57:15;3.72;;;1.10;;
71572;SDS011;59408;51.032;9.410;2024-03-02T13:59:42;4.35;;;1.30;;
71572;SDS011;59408;51.032;9.410;2024-03-02T14:02:09;4.37;;;1.20;;
71572;SDS011;59408;51.032;9.410;2024-03-02T14:04:37;5.10;;;1.20;;
71572;SDS011;59408;51.032;9.410;2024-03-02T14:07:04;3.60;;;0.90;;
71572;SDS011;59408;51.032;9.410;2024-03-02T14:09:31;3.60;;;0.98;;
71572;SDS011;59408;51.032;9.410;2024-03-02T14:11:58;4.10;;;1.20;;
71572;SDS011;59408;51.032;9.410;2024-03-02T14:14:26;5.53;;;1.47;;
71572;SDS011;59408;51.032;9.410;2024-03-02T14:16:53;3.88;;;1.20;;
71572;SDS011;59408;51.032;9.410;2024-03-02T14:19:20;5.32;;;1.75;;
71572;SDS011;59408;51.032;9.410;2024-03-02T14:21:46;4.95;;;1.73;;
71572;SDS011;59408;51.032;9.410;2024-03-02T14:24:13;5.40;;;1.92;;
71572;SDS011;59408;51.032;9.410;2024-03-02T14:26:39;5.07;;;1.70;;
71572;SDS011;59408;51.032;9.410;2024-03-02T14:29:06;5.20;;;1.85;;
71572;SDS011;59408;51.032;9.410;2024-03-02T14:31:34;5.75;;;2.55;;
71572;SDS011;59408;51.032;9.410;2024-03-02T14:34:00;6.00;;;2.25;;